Lake Louise, Canada
Current Conditions -  °F | °C
As of 5:00 PM on Friday 28 Nov 2014 (Local Time) from CYGE Reporting Station
Overcast Overcast  
Wind Chill:   Ceiling: 6500
Heat Index: 14°   Visibility: 20mi
Dew Point:   Wind: 7mph
Humidity: 73%   Direction: 350°N
Pressure: 29.38"   Gusts: NA
Location:  51.43°N, 116.18°W
Report Text: CYGE 290000Z 35006KT 300V030 20SM FEW030 BKN065 BKN130 OVC210 M10/M14 A2938 RMK SC1SC4AS2CS1 LAST OBS/NEXT 291400Z SLP987
Loading
Personal Weather Stations






























Interactive Weather Map New forecast layout! Learn more

10-Day Weather Forecast

Advertisements
Track Severe Weather on mobile